Time;durP1;ratioP1;P1;durP2;ratioP2;P2;SDS_P1;SDS_P2;PMS_P1;PMS_P2;Temp;Humidity;BMP_temperature;BMP_pressure;BME280_temperature;BME280_humidity;BME280_pressure;Samples;Min_cycle;Max_cycle;Signal;HPM_P1;HPM_P2
2022/01/30 00:00:17;;;;;;;17.90;3.83;;;;;;;6.10;100.00;102866.31;5032595;28;20053;-76
2022/01/30 00:02:46;;;;;;;26.42;4.53;;;;;;;6.04;100.00;102862.66;5032438;28;20099;-76
2022/01/30 00:05:14;;;;;;;26.35;5.35;;;;;;;6.07;100.00;102853.00;5032299;28;20080;-77
2022/01/30 00:08:06;;;;;;;24.30;4.13;;;;;;;6.07;100.00;102841.53;5032521;28;20064;-77
2022/01/30 00:10:38;;;;;;;22.77;4.78;;;;;;;6.05;100.00;102856.50;5032133;28;20514;-77
2022/01/30 00:13:08;;;;;;;21.50;4.57;;;;;;;6.05;100.00;102856.50;5032895;28;20065;-76
2022/01/30 00:15:41;;;;;;;25.67;5.47;;;;;;;5.98;100.00;102864.31;5032183;28;20085;-76
2022/01/30 00:18:35;;;;;;;19.65;4.65;;;;;;;5.96;100.00;102860.75;5031909;28;20053;-76
2022/01/30 00:21:10;;;;;;;24.95;5.03;;;;;;;5.95;100.00;102853.63;5031997;28;20061;-76
2022/01/30 00:23:44;;;;;;;20.83;4.43;;;;;;;5.96;100.00;102859.88;5034579;28;20053;-76
2022/01/30 00:26:15;;;;;;;21.13;4.22;;;;;;;5.91;100.00;102864.16;5036170;28;20133;-76
2022/01/30 00:28:43;;;;;;;24.02;4.47;;;;;;;5.88;100.00;102859.69;5036071;28;20049;-76
2022/01/30 00:31:13;;;;;;;25.30;5.00;;;;;;;5.82;100.00;102861.31;5035873;28;20498;-76
2022/01/30 00:33:45;;;;;;;30.15;4.95;;;;;;;5.79;100.00;102865.69;5036415;28;20435;-76
2022/01/30 00:36:12;;;;;;;23.73;4.75;;;;;;;5.67;100.00;102867.19;5036069;28;20500;-76
2022/01/30 00:38:42;;;;;;;24.02;5.10;;;;;;;5.69;100.00;102874.31;5036319;28;20053;-76
2022/01/30 00:41:10;;;;;;;26.77;4.68;;;;;;;5.65;100.00;102883.03;5036328;28;20060;-77
2022/01/30 00:43:40;;;;;;;28.70;5.88;;;;;;;5.75;100.00;102885.03;5036218;28;20076;-76
2022/01/30 00:46:09;;;;;;;22.67;4.35;;;;;;;5.70;100.00;102886.69;5035901;28;20053;-76
2022/01/30 00:48:37;;;;;;;20.08;4.22;;;;;;;5.65;100.00;102890.09;5035512;28;20053;-76
2022/01/30 00:51:06;;;;;;;20.58;4.85;;;;;;;5.65;100.00;102885.69;5035941;28;20070;-76
2022/01/30 00:53:58;;;;;;;22.67;4.07;;;;;;;5.68;100.00;102895.47;5035359;28;20609;-77
2022/01/30 00:56:26;;;;;;;26.92;4.65;;;;;;;5.67;100.00;102891.03;5035555;28;20053;-76
2022/01/30 00:58:54;;;;;;;25.13;4.72;;;;;;;5.67;100.00;102891.94;5035728;28;20052;-77
2022/01/30 01:01:22;;;;;;;18.45;4.13;;;;;;;5.64;100.00;102905.13;5035913;28;20076;-76
2022/01/30 01:03:50;;;;;;;28.15;4.47;;;;;;;5.66;100.00;102891.91;5035933;28;20057;-76
2022/01/30 01:06:19;;;;;;;22.60;4.80;;;;;;;5.69;100.00;102889.31;5035622;28;20133;-77
2022/01/30 01:08:57;;;;;;;17.95;3.75;;;;;;;5.68;100.00;102885.75;5035159;28;20049;-71
2022/01/30 01:25:53;;;;;;;18.92;4.18;;;;;;;5.63;100.00;102886.53;5034178;28;20045;-71
2022/01/30 01:28:27;;;;;;;34.97;4.70;;;;;;;5.54;100.00;102892.53;5033900;28;20497;-71
2022/01/30 01:30:58;;;;;;;19.90;4.20;;;;;;;5.65;100.00;102893.63;5033335;28;20099;-70
2022/01/30 01:33:44;;;;;;;14.60;3.55;;;;;;;5.66;100.00;102894.56;5034035;28;20061;-71
2022/01/30 01:36:30;;;;;;;24.25;3.90;;;;;;;5.61;100.00;102902.41;5018768;28;20085;-70
2022/01/30 01:39:01;;;;;;;21.70;5.15;;;;;;;5.65;100.00;102908.66;5034297;28;20050;-76
2022/01/30 01:41:31;;;;;;;42.30;5.40;;;;;;;5.64;100.00;102906.88;5035709;28;20088;-76
2022/01/30 01:44:00;;;;;;;14.82;4.25;;;;;;;5.69;100.00;102905.22;5034824;28;20087;-77
2022/01/30 01:46:32;;;;;;;24.88;4.20;;;;;;;5.63;100.00;102908.59;5034693;28;20116;-76
2022/01/30 01:49:00;;;;;;;20.00;3.88;;;;;;;5.58;100.00;102907.63;5034585;28;20050;-77
2022/01/30 01:51:47;;;;;;;28.25;4.25;;;;;;;5.57;100.00;102909.38;5034678;28;20100;-73
2022/01/30 01:54:27;;;;;;;12.45;3.58;;;;;;;5.56;100.00;102907.59;5032876;28;20129;-71
2022/01/30 01:57:06;;;;;;;19.67;4.13;;;;;;;5.59;100.00;102905.00;5032279;28;20053;-71
2022/01/30 01:59:40;;;;;;;19.02;3.80;;;;;;;5.50;100.00;102906.56;5032575;28;20058;-71
2022/01/30 02:02:17;;;;;;;21.65;4.53;;;;;;;5.49;100.00;102912.72;5033481;28;20112;-71
2022/01/30 02:04:47;;;;;;;16.98;3.78;;;;;;;5.48;100.00;102914.47;5033520;28;20075;-71
2022/01/30 02:10:27;;;;;;;14.70;4.03;;;;;;;5.54;100.00;102924.31;5033852;28;20482;-71
2022/01/30 02:13:20;;;;;;;15.85;4.78;;;;;;;5.49;100.00;102920.66;5033705;28;20050;-71
2022/01/30 02:28:09;;;;;;;17.35;3.60;;;;;;;5.60;100.00;102924.44;5030230;28;20136;-71
2022/01/30 02:39:14;;;;;;;17.90;3.53;;;;;;;5.40;100.00;102909.00;5032981;28;20140;-71
2022/01/30 02:41:53;;;;;;;18.33;4.65;;;;;;;5.45;100.00;102913.50;5031771;28;20057;-70
2022/01/30 02:44:31;;;;;;;18.17;3.78;;;;;;;5.49;100.00;102910.97;5032592;28;20132;-70
2022/01/30 02:47:05;;;;;;;30.52;4.45;;;;;;;5.45;100.00;102913.50;5032081;28;20434;-76
2022/01/30 02:52:32;;;;;;;17.63;4.88;;;;;;;5.36;100.00;102909.81;5032092;28;20489;-71
2022/01/30 02:55:16;;;;;;;21.65;3.28;;;;;;;5.35;100.00;102904.47;5032316;28;20091;-70
2022/01/30 02:57:52;;;;;;;24.52;4.57;;;;;;;5.40;100.00;102914.31;5031557;28;20096;-71
2022/01/30 03:00:54;;;;;;;19.55;3.85;;;;;;;5.20;100.00;102913.84;5032355;28;20096;-71
2022/01/30 03:03:34;;;;;;;23.50;3.97;;;;;;;5.19;100.00;102905.84;5032508;28;20062;-71
2022/01/30 03:06:09;;;;;;;22.13;2.97;;;;;;;5.38;100.00;102912.47;5032079;28;20070;-71
2022/01/30 03:08:43;;;;;;;19.75;3.45;;;;;;;5.36;100.00;102924.78;5030111;28;20056;-71
2022/01/30 03:11:19;;;;;;;16.93;4.13;;;;;;;5.47;100.00;102915.34;5030570;28;20052;-71
2022/01/30 03:14:20;;;;;;;18.88;3.33;;;;;;;5.39;100.00;102911.63;5032146;28;20059;-71
2022/01/30 03:16:56;;;;;;;12.93;3.03;;;;;;;5.38;100.00;102923.06;5032446;28;20057;-71
2022/01/30 03:19:24;;;;;;;22.85;4.30;;;;;;;5.31;100.00;102924.69;5031530;28;20045;-76
2022/01/30 03:21:53;;;;;;;17.33;3.75;;;;;;;5.35;100.00;102929.19;5032900;28;20111;-77
2022/01/30 03:24:21;;;;;;;18.55;4.03;;;;;;;5.32;100.00;102936.16;5032754;28;20096;-76
2022/01/30 03:26:49;;;;;;;21.42;4.18;;;;;;;5.41;100.00;102941.66;5032821;28;20381;-76
2022/01/30 03:29:18;;;;;;;16.05;3.30;;;;;;;5.39;100.00;102946.94;5033083;28;20148;-76
2022/01/30 03:31:46;;;;;;;18.73;3.30;;;;;;;5.49;100.00;102955.09;5032806;28;20084;-76
2022/01/30 03:34:15;;;;;;;12.30;2.55;;;;;;;5.41;100.00;102949.59;5032881;28;20180;-76
2022/01/30 03:36:43;;;;;;;11.38;3.22;;;;;;;5.38;100.00;102947.81;5032221;28;20092;-76
2022/01/30 03:39:10;;;;;;;11.50;3.38;;;;;;;5.38;100.00;102949.53;5032643;28;20057;-76
2022/01/30 03:41:38;;;;;;;13.10;3.33;;;;;;;5.41;100.00;102947.88;5032020;28;20544;-77
2022/01/30 03:44:07;;;;;;;11.32;3.00;;;;;;;5.58;100.00;102957.94;5032461;28;20045;-76
2022/01/30 03:46:36;;;;;;;10.88;2.30;;;;;;;5.54;100.00;102945.50;5032600;28;20095;-76
2022/01/30 03:49:22;;;;;;;11.15;3.00;;;;;;;5.52;100.00;102961.34;5032194;28;20093;-76
2022/01/30 03:51:52;;;;;;;15.57;2.17;;;;;;;5.47;100.00;102935.63;5032385;28;20113;-70
2022/01/30 03:54:34;;;;;;;10.63;2.53;;;;;;;5.46;100.00;102933.84;5031738;28;20085;-70
2022/01/30 03:57:10;;;;;;;12.65;2.40;;;;;;;5.41;100.00;102933.72;5031565;28;20120;-70
2022/01/30 03:59:42;;;;;;;11.35;2.67;;;;;;;5.37;100.00;102942.47;5029258;28;20061;-70
2022/01/30 04:02:21;;;;;;;7.55;2.50;;;;;;;5.41;100.00;102946.97;5031539;28;20179;-71
2022/01/30 04:04:53;;;;;;;13.38;3.40;;;;;;;5.37;100.00;102951.28;5031334;28;20492;-71
2022/01/30 04:07:31;;;;;;;13.75;3.05;;;;;;;5.42;100.00;102952.28;5031831;28;20052;-75
2022/01/30 04:09:59;;;;;;;12.43;3.35;;;;;;;5.53;100.00;102960.47;5032267;28;20041;-76
2022/01/30 04:12:31;;;;;;;15.88;2.70;;;;;;;5.55;100.00;102963.16;5032046;28;20451;-76
2022/01/30 04:15:00;;;;;;;13.70;2.42;;;;;;;5.52;100.00;102963.13;5032272;28;20061;-76
2022/01/30 04:17:29;;;;;;;17.00;3.80;;;;;;;5.55;100.00;102958.78;5032431;28;20046;-76
2022/01/30 04:20:00;;;;;;;15.05;3.25;;;;;;;5.52;100.00;102956.06;5032626;28;20136;-76
2022/01/30 04:25:18;;;;;;;14.77;3.05;;;;;;;5.53;100.00;102956.94;5031516;28;20050;-70
2022/01/30 04:27:51;;;;;;;16.45;3.25;;;;;;;5.48;100.00;102948.88;5031769;28;20045;-70
2022/01/30 04:30:23;;;;;;;17.83;3.97;;;;;;;5.45;100.00;102962.06;5031320;28;20050;-76
2022/01/30 04:32:55;;;;;;;10.43;2.45;;;;;;;5.33;100.00;102969.72;5032534;28;20053;-76
2022/01/30 04:35:26;;;;;;;14.52;2.67;;;;;;;5.29;100.00;102962.56;5032109;28;20050;-76
2022/01/30 04:38:04;;;;;;;15.80;3.58;;;;;;;5.26;100.00;102971.34;5032273;28;20489;-76
2022/01/30 04:52:17;;;;;;;18.30;3.33;;;;;;;5.17;100.00;102972.00;5032373;28;20049;-76
2022/01/30 04:57:51;;;;;;;18.40;3.85;;;;;;;4.95;100.00;102972.31;5031629;28;20053;-76
2022/01/30 05:00:28;;;;;;;13.50;3.42;;;;;;;4.92;100.00;102985.47;5031595;28;20081;-76
2022/01/30 05:03:04;;;;;;;14.88;3.15;;;;;;;4.89;100.00;102988.03;5032082;28;20105;-76
2022/01/30 05:05:52;;;;;;;24.35;4.10;;;;;;;4.93;100.00;103000.50;5031862;28;20057;-76
2022/01/30 05:08:20;;;;;;;17.52;3.20;;;;;;;4.95;100.00;103001.44;5031905;28;20089;-75
2022/01/30 05:11:05;;;;;;;12.68;3.00;;;;;;;4.85;100.00;103000.28;5033832;28;20402;-70
2022/01/30 05:13:46;;;;;;;14.18;3.20;;;;;;;4.77;100.00;103005.41;5033188;28;20124;-71
2022/01/30 05:16:26;;;;;;;13.02;3.58;;;;;;;4.86;100.00;103008.28;5034496;28;20195;-70
2022/01/30 05:19:05;;;;;;;18.50;2.70;;;;;;;4.79;100.00;103013.38;5035214;28;20069;-75
2022/01/30 05:22:02;;;;;;;14.50;2.75;;;;;;;4.74;100.00;103004.41;5035036;28;20525;-76
2022/01/30 05:24:30;;;;;;;15.55;2.58;;;;;;;4.73;100.00;103014.09;5035127;28;20132;-77
2022/01/30 05:26:59;;;;;;;18.23;2.80;;;;;;;4.63;100.00;103006.75;5035525;28;20049;-76
2022/01/30 05:29:27;;;;;;;16.35;3.72;;;;;;;4.81;100.00;103014.31;5034813;28;20539;-76
2022/01/30 05:31:55;;;;;;;9.73;2.50;;;;;;;4.89;100.00;103025.06;5034685;28;20518;-76
2022/01/30 05:34:23;;;;;;;16.70;3.10;;;;;;;4.80;100.00;103020.44;5035134;28;20560;-76
2022/01/30 05:36:53;;;;;;;17.65;3.35;;;;;;;4.80;100.00;103031.94;5035007;28;20050;-76
2022/01/30 05:39:23;;;;;;;19.17;3.83;;;;;;;4.79;100.00;103047.75;5034703;28;20049;-76
2022/01/30 05:44:57;;;;;;;20.27;2.83;;;;;;;4.64;100.00;103058.81;5033766;28;20513;-71
2022/01/30 05:47:44;;;;;;;17.55;3.25;;;;;;;4.59;100.00;103063.97;5033628;28;20124;-71
2022/01/30 05:50:24;;;;;;;18.35;3.83;;;;;;;4.58;100.00;103066.56;5032852;28;20105;-71
2022/01/30 05:52:54;;;;;;;20.88;3.47;;;;;;;4.72;100.00;103065.22;5033965;28;20060;-71
2022/01/30 05:55:27;;;;;;;11.23;3.05;;;;;;;4.82;100.00;103074.31;5032374;28;20049;-71
2022/01/30 05:57:56;;;;;;;14.45;3.03;;;;;;;4.83;100.00;103065.50;5034104;28;20053;-76
2022/01/30 06:00:25;;;;;;;11.65;2.58;;;;;;;4.80;100.00;103082.19;5034558;28;20494;-77
2022/01/30 06:02:53;;;;;;;14.52;2.95;;;;;;;4.87;100.00;103070.03;5034202;28;20514;-77
2022/01/30 06:05:24;;;;;;;13.10;3.22;;;;;;;5.03;100.00;103082.81;5034477;28;20125;-78
2022/01/30 06:07:54;;;;;;;12.30;3.25;;;;;;;5.08;100.00;103080.28;5033839;28;20513;-78
2022/01/30 06:10:27;;;;;;;15.98;3.35;;;;;;;5.11;100.00;103088.31;5034551;28;20095;-76
2022/01/30 06:12:55;;;;;;;14.93;3.47;;;;;;;4.99;100.00;103088.88;5034131;28;20056;-76
2022/01/30 06:15:35;;;;;;;15.93;4.25;;;;;;;5.03;100.00;103092.50;5033340;28;20129;-71
2022/01/30 06:18:11;;;;;;;23.83;3.40;;;;;;;4.85;100.00;103084.94;5032422;28;20050;-72
2022/01/30 06:21:13;;;;;;;19.67;3.72;;;;;;;4.90;100.00;103099.19;5032906;28;20129;-73
2022/01/30 06:23:50;;;;;;;21.63;6.53;;;;;;;4.83;100.00;103098.13;5033140;28;20041;-71
2022/01/30 06:26:22;;;;;;;19.88;3.28;;;;;;;4.75;100.00;103093.47;5032964;28;20552;-71
2022/01/30 06:28:53;;;;;;;21.42;4.22;;;;;;;4.69;100.00;103088.94;5032739;28;20086;-72
2022/01/30 06:31:36;;;;;;;14.23;3.58;;;;;;;4.63;100.00;103094.03;5032375;28;20044;-78
2022/01/30 06:34:10;;;;;;;17.75;3.55;;;;;;;4.68;100.00;103095.06;5033902;28;20085;-77
2022/01/30 06:36:48;;;;;;;19.48;4.65;;;;;;;4.64;100.00;103107.28;5034143;28;20053;-76
2022/01/30 06:39:28;;;;;;;19.42;4.03;;;;;;;4.57;100.00;103102.69;5031968;28;20042;-71
2022/01/30 06:42:35;;;;;;;16.10;3.15;;;;;;;4.56;100.00;103102.66;5033117;28;20049;-71
2022/01/30 06:45:09;;;;;;;12.68;3.22;;;;;;;4.60;100.00;103102.78;5032762;28;20108;-71
2022/01/30 06:47:42;;;;;;;22.88;4.72;;;;;;;4.59;100.00;103108.03;5031824;28;20049;-77
2022/01/30 06:50:11;;;;;;;19.33;3.40;;;;;;;4.49;100.00;103104.22;5033549;28;20061;-77
2022/01/30 06:52:46;;;;;;;18.50;3.75;;;;;;;4.45;100.00;103123.50;5032436;28;20049;-71
2022/01/30 06:55:24;;;;;;;16.50;3.60;;;;;;;4.49;100.00;103109.50;5032650;28;20053;-71
2022/01/30 06:58:11;;;;;;;16.95;4.25;;;;;;;4.59;100.00;103110.66;5031418;28;20056;-71
2022/01/30 07:01:04;;;;;;;11.90;2.72;;;;;;;4.82;100.00;103111.34;5032390;28;20057;-71
2022/01/30 07:03:35;;;;;;;22.92;3.90;;;;;;;4.77;100.00;103102.38;5033178;28;20061;-76
2022/01/30 07:06:03;;;;;;;20.35;3.83;;;;;;;4.69;100.00;103099.50;5032734;28;20083;-76
2022/01/30 07:08:31;;;;;;;15.82;3.58;;;;;;;4.58;100.00;103101.84;5032873;28;20081;-77
2022/01/30 07:10:59;;;;;;;17.15;3.67;;;;;;;4.72;100.00;103117.22;5033195;28;20053;-77
2022/01/30 07:13:40;;;;;;;18.40;3.75;;;;;;;4.62;99.33;103124.00;5032248;28;20053;-71
2022/01/30 07:16:20;;;;;;;19.10;3.55;;;;;;;4.60;98.73;103128.34;5029041;28;20049;-71
2022/01/30 07:18:51;;;;;;;18.17;3.43;;;;;;;4.56;99.22;103143.19;5029346;28;20125;-71
2022/01/30 07:21:29;;;;;;;16.08;3.60;;;;;;;4.42;100.00;103142.78;5032940;28;20076;-71
2022/01/30 07:24:02;;;;;;;16.83;3.33;;;;;;;4.35;100.00;103150.50;5032192;28;20079;-71
2022/01/30 07:26:37;;;;;;;16.45;3.80;;;;;;;4.33;100.00;103150.44;5032054;28;20057;-71
2022/01/30 07:29:25;;;;;;;23.67;4.18;;;;;;;4.33;100.00;103152.22;5032220;28;20426;-71
2022/01/30 07:32:00;;;;;;;16.70;3.45;;;;;;;4.34;100.00;103162.81;5031679;28;20530;-71
2022/01/30 07:34:36;;;;;;;24.08;4.65;;;;;;;4.36;100.00;103157.56;5030945;28;20046;-71
2022/01/30 07:37:12;;;;;;;14.38;4.57;;;;;;;4.27;100.00;103161.75;5032099;28;20042;-71
2022/01/30 07:39:41;;;;;;;17.67;3.88;;;;;;;4.30;100.00;103160.94;5031253;28;20045;-72
2022/01/30 07:42:14;;;;;;;16.30;3.78;;;;;;;4.27;100.00;103156.47;5031751;28;20048;-72
2022/01/30 07:45:16;;;;;;;21.48;4.32;;;;;;;4.29;100.00;103157.41;5031900;28;20131;-72
2022/01/30 07:47:53;;;;;;;15.50;3.53;;;;;;;4.21;100.00;103144.78;5030541;28;20053;-72
2022/01/30 07:50:34;;;;;;;24.63;4.68;;;;;;;4.29;100.00;103141.53;5031708;28;20057;-72
2022/01/30 07:53:46;;;;;;;18.73;4.03;;;;;;;4.32;100.00;103148.66;5030419;28;20572;-72
2022/01/30 07:56:24;;;;;;;14.90;4.18;;;;;;;4.34;100.00;103151.34;5030077;28;20045;-72
2022/01/30 07:59:13;;;;;;;18.50;4.70;;;;;;;4.38;100.00;103140.91;5030608;28;20053;-73
2022/01/30 08:02:30;;;;;;;21.02;4.00;;;;;;;4.43;100.00;103135.78;5030453;28;20056;-73
2022/01/30 08:05:04;;;;;;;22.35;5.18;;;;;;;4.55;100.00;103137.88;5030254;28;20057;-71
2022/01/30 08:08:01;;;;;;;34.30;4.78;;;;;;;4.63;100.00;103137.25;5031708;28;20075;-71
2022/01/30 08:10:31;;;;;;;23.92;4.38;;;;;;;4.62;100.00;103145.16;5030936;28;20212;-76
2022/01/30 08:12:59;;;;;;;17.70;4.30;;;;;;;4.73;100.00;103148.97;5032734;28;20099;-77
2022/01/30 08:15:27;;;;;;;18.85;4.05;;;;;;;4.75;100.00;103144.66;5032819;28;20077;-76
2022/01/30 08:18:00;;;;;;;17.30;3.95;;;;;;;4.81;100.00;103154.50;5032254;28;20049;-77
2022/01/30 08:20:28;;;;;;;20.10;4.20;;;;;;;4.78;100.00;103154.41;5032501;28;20553;-77
2022/01/30 08:22:57;;;;;;;31.70;4.25;;;;;;;4.80;100.00;103150.97;5032671;28;20507;-78
2022/01/30 08:25:25;;;;;;;18.33;4.32;;;;;;;4.88;100.00;103155.59;5032307;28;20088;-79
2022/01/30 08:28:05;;;;;;;22.70;4.65;;;;;;;4.96;100.00;103162.00;5032402;28;20052;-71
2022/01/30 08:34:34;;;;;;;21.35;3.67;;;;;;;5.14;100.00;103178.38;5031410;28;20057;-71
2022/01/30 08:37:22;;;;;;;24.67;4.82;;;;;;;5.15;100.00;103174.88;5029921;28;20053;-71
2022/01/30 08:40:04;;;;;;;26.70;4.82;;;;;;;5.22;100.00;103163.59;5029336;28;20045;-71
2022/01/30 08:42:56;;;;;;;22.35;5.18;;;;;;;5.28;100.00;103165.53;5031099;28;20049;-71
2022/01/30 08:45:37;;;;;;;21.92;4.05;;;;;;;5.33;100.00;103168.28;5033181;28;20124;-72
2022/01/30 08:48:24;;;;;;;19.90;4.32;;;;;;;5.36;100.00;103160.41;5034897;28;20080;-71
2022/01/30 08:51:14;;;;;;;22.55;4.38;;;;;;;5.36;100.00;103165.72;5034487;28;20132;-71
2022/01/30 08:53:54;;;;;;;23.15;4.45;;;;;;;5.37;100.00;103171.06;5033935;28;20104;-71
2022/01/30 08:56:49;;;;;;;19.15;4.93;;;;;;;5.42;100.00;103161.47;5034657;28;20041;-71
2022/01/30 08:59:26;;;;;;;22.20;4.22;;;;;;;5.43;100.00;103168.59;5019301;28;20049;-71
2022/01/30 09:02:19;;;;;;;19.70;4.90;;;;;;;5.51;100.00;103175.81;5035024;28;20068;-77
2022/01/30 09:04:48;;;;;;;18.60;4.22;;;;;;;5.53;100.00;103176.75;5035540;28;20049;-71
2022/01/30 09:07:18;;;;;;;24.02;4.35;;;;;;;5.58;100.00;103177.78;5034096;28;20119;-71
2022/01/30 09:09:50;;;;;;;23.30;4.28;;;;;;;5.60;100.00;103182.25;5034811;28;20084;-71
2022/01/30 09:12:26;;;;;;;24.90;4.57;;;;;;;5.69;100.00;103183.38;5033480;28;20140;-71
2022/01/30 09:14:55;;;;;;;16.75;4.07;;;;;;;5.79;100.00;103194.22;5034998;28;20398;-78
2022/01/30 09:17:24;;;;;;;24.50;4.85;;;;;;;5.84;100.00;103190.78;5035428;28;20050;-78
2022/01/30 09:19:53;;;;;;;21.85;4.20;;;;;;;5.88;100.00;103193.56;5035529;28;20078;-79
2022/01/30 09:22:23;;;;;;;19.30;4.68;;;;;;;5.90;100.00;103198.91;5035844;28;20150;-78
2022/01/30 09:24:54;;;;;;;27.65;6.03;;;;;;;5.88;100.00;103209.44;5035558;28;20057;-78
2022/01/30 09:27:24;;;;;;;24.98;4.78;;;;;;;5.84;100.00;103209.31;5035987;28;20386;-78
2022/01/30 09:30:00;;;;;;;23.90;5.18;;;;;;;5.82;100.00;103214.59;5034389;28;20091;-71
2022/01/30 09:32:45;;;;;;;32.10;5.15;;;;;;;5.94;100.00;103221.94;5033624;28;20076;-71
2022/01/30 09:35:24;;;;;;;23.83;4.45;;;;;;;6.03;99.78;103218.66;5034463;28;20045;-71
2022/01/30 09:38:07;;;;;;;;;;;;;;;6.11;98.88;103215.38;5034420;28;20084;-70
2022/01/30 09:41:00;;;;;;;18.73;3.33;;;;;;;6.16;99.88;103224.34;5032531;28;20008;-71
2022/01/30 09:43:41;;;;;;;18.55;3.50;;;;;;;6.21;99.38;103221.78;5033352;28;20076;-71
2022/01/30 09:46:23;;;;;;;14.60;3.90;;;;;;;6.14;100.00;103220.72;5032861;28;20080;-78
2022/01/30 09:48:52;;;;;;;21.15;4.07;;;;;;;6.11;100.00;103233.00;5034876;28;20109;-77
2022/01/30 09:51:21;;;;;;;21.77;5.00;;;;;;;6.04;100.00;103231.97;5034592;28;20050;-78
2022/01/30 09:53:51;;;;;;;16.90;3.90;;;;;;;6.15;100.00;103221.63;5034231;28;20083;-78
2022/01/30 09:56:20;;;;;;;22.52;4.35;;;;;;;6.44;100.00;103216.13;5033798;28;20458;-78
2022/01/30 09:58:47;;;;;;;25.65;4.50;;;;;;;6.50;100.00;103219.81;5034295;28;20053;-78
2022/01/30 10:01:18;;;;;;;19.67;3.80;;;;;;;6.46;100.00;103220.59;5034028;28;20103;-71
2022/01/30 10:03:54;;;;;;;16.52;4.43;;;;;;;6.47;100.00;103217.09;5032830;28;20072;-71
2022/01/30 10:06:34;;;;;;;18.35;4.95;;;;;;;6.67;100.00;103213.97;5033135;28;20108;-71
2022/01/30 10:12:15;;;;;;;21.80;4.18;;;;;;;6.67;100.00;103206.91;5033521;28;20094;-71
2022/01/30 10:15:11;;;;;;;19.08;4.05;;;;;;;6.59;100.00;103220.88;5033098;28;20060;-77
2022/01/30 10:17:40;;;;;;;25.30;4.72;;;;;;;6.45;100.00;103218.81;5034472;28;20060;-78
2022/01/30 10:20:35;;;;;;;20.70;4.82;;;;;;;6.41;100.00;103226.66;5034139;28;20145;-78
2022/01/30 10:23:08;;;;;;;32.92;5.55;;;;;;;6.35;100.00;103235.34;5034124;28;20096;-78
2022/01/30 10:25:40;;;;;;;25.70;3.95;;;;;;;6.20;100.00;103233.25;5034526;28;20049;-78
2022/01/30 10:28:11;;;;;;;19.65;3.15;;;;;;;6.16;100.00;103248.19;5034008;28;20050;-79
2022/01/30 10:30:54;;;;;;;23.10;4.57;;;;;;;6.46;100.00;103249.78;5034114;28;20068;-70
2022/01/30 10:33:42;;;;;;;23.42;5.35;;;;;;;6.64;99.75;103240.44;5031603;28;20133;-72
2022/01/30 10:36:29;;;;;;;20.77;4.82;;;;;;;6.87;99.11;103239.19;5033147;28;20075;-70
2022/01/30 10:39:12;;;;;;;20.42;4.10;;;;;;;7.06;97.19;103239.59;5032011;28;20050;-70
2022/01/30 10:41:53;;;;;;;23.13;4.10;;;;;;;7.13;95.85;103238.84;5033041;28;20055;-72
2022/01/30 10:44:48;;;;;;;19.35;4.15;;;;;;;7.22;93.59;103244.34;5032726;28;20053;-70
2022/01/30 10:47:24;;;;;;;24.63;4.03;;;;;;;7.54;89.90;103244.06;5033254;28;20124;-70
2022/01/30 10:49:57;;;;;;;14.50;3.47;;;;;;;7.34;81.93;103233.09;5032713;28;20041;-70
2022/01/30 10:52:29;;;;;;;15.68;3.38;;;;;;;7.46;78.94;103241.28;5032281;28;20077;-71
2022/01/30 10:55:07;;;;;;;29.70;6.40;;;;;;;7.50;79.24;103236.91;5048328;28;20095;-71
2022/01/30 10:57:47;;;;;;;18.45;3.78;;;;;;;7.52;79.01;103235.19;5032222;28;20267;-72
2022/01/30 11:00:37;;;;;;;;;;;;;;;7.34;77.31;103238.41;5032618;28;20053;-70
2022/01/30 11:03:06;;;;;;;31.57;3.37;;;;;;;7.29;69.20;103243.59;5032714;28;20352;-70
2022/01/30 11:06:01;;;;;;;25.38;5.03;;;;;;;7.38;69.53;103242.00;5032728;28;20049;-70
2022/01/30 11:08:39;;;;;;;18.35;3.38;;;;;;;7.58;68.86;103243.28;5025953;28;20057;-71
2022/01/30 11:11:14;;;;;;;17.60;4.13;;;;;;;7.62;70.72;103242.47;5031952;28;20045;-78
2022/01/30 11:19:15;;;;;;;18.17;3.60;;;;;;;7.33;71.40;103243.69;5032338;28;20089;-72
2022/01/30 11:21:44;;;;;;;19.80;3.85;;;;;;;7.06;69.77;103245.78;5032538;28;20053;-71
2022/01/30 11:24:17;;;;;;;18.63;3.75;;;;;;;6.90;70.09;103241.03;5031140;28;20553;-78
2022/01/30 11:26:46;;;;;;;23.35;4.20;;;;;;;6.96;70.35;103242.91;5033053;28;20111;-78
2022/01/30 11:29:16;;;;;;;19.15;4.85;;;;;;;6.84;71.77;103246.19;5032674;28;20060;-78
2022/01/30 11:31:44;;;;;;;19.80;4.13;;;;;;;6.85;72.30;103246.22;5032758;28;20398;-78
2022/01/30 11:34:13;;;;;;;22.25;4.00;;;;;;;6.79;70.77;103243.44;5032467;28;20053;-78
2022/01/30 11:36:53;;;;;;;20.77;4.57;;;;;;;6.72;70.84;103241.50;5032675;28;20094;-71
2022/01/30 11:39:37;;;;;;;16.85;3.85;;;;;;;6.65;69.49;103240.47;5031970;28;20091;-71
2022/01/30 11:42:14;;;;;;;25.27;4.25;;;;;;;6.85;68.27;103235.63;5031450;28;20053;-71
2022/01/30 11:44:49;;;;;;;16.55;4.32;;;;;;;6.89;69.72;103233.91;5031463;28;20154;-71
2022/01/30 11:47:48;;;;;;;23.38;5.15;;;;;;;6.83;68.74;103229.38;5030931;28;20091;-73
2022/01/30 11:50:19;;;;;;;;;;;;;;;7.15;68.27;103233.56;5031935;28;20060;-73
2022/01/30 11:53:13;;;;;;;18.10;4.35;;;;;;;7.53;67.49;103215.72;5032287;28;19936;-78
2022/01/30 11:55:49;;;;;;;22.90;4.63;;;;;;;7.99;67.75;103210.31;5033197;28;20068;-79
2022/01/30 11:58:55;;;;;;;23.75;4.50;;;;;;;8.28;63.99;103207.25;5032678;28;20050;-78
2022/01/30 12:01:42;;;;;;;16.40;3.88;;;;;;;8.49;62.23;103212.00;5032941;28;20132;-81
2022/01/30 12:04:14;;;;;;;25.73;5.03;;;;;;;8.72;61.72;103199.03;5032276;28;20105;-77
2022/01/30 12:06:47;;;;;;;19.90;3.83;;;;;;;8.53;59.11;103205.84;5032486;28;20080;-73
2022/01/30 12:09:35;;;;;;;18.15;4.10;;;;;;;8.56;60.11;103200.56;5031735;28;20088;-73
2022/01/30 12:12:06;;;;;;;16.48;3.30;;;;;;;8.39;60.63;103194.97;5031949;28;20088;-73
2022/01/30 12:15:06;;;;;;;17.55;3.78;;;;;;;8.55;60.44;103193.47;5031747;28;20088;-73
2022/01/30 12:18:01;;;;;;;14.63;3.28;;;;;;;7.91;60.35;103190.69;5031506;28;20450;-73
2022/01/30 12:20:31;;;;;;;18.80;4.13;;;;;;;7.69;63.07;103181.47;5035622;28;20067;-79
2022/01/30 12:23:01;;;;;;;21.08;4.00;;;;;;;8.13;63.61;103178.63;5035687;28;20393;-79
2022/01/30 12:25:36;;;;;;;20.27;4.10;;;;;;;8.36;63.56;103179.88;5035338;28;20117;-79
2022/01/30 12:28:07;;;;;;;21.67;4.00;;;;;;;8.72;62.03;103167.97;5035750;28;20104;-72
2022/01/30 12:30:53;;;;;;;19.58;4.88;;;;;;;8.65;59.64;103178.50;5035407;28;20046;-71
2022/01/30 12:33:43;;;;;;;25.85;4.72;;;;;;;8.55;57.66;103173.06;5035793;28;20176;-71
2022/01/30 12:36:20;;;;;;;16.05;3.30;;;;;;;8.24;57.22;103179.69;5034581;28;20090;-80
2022/01/30 12:38:56;;;;;;;11.50;3.35;;;;;;;8.33;58.27;103177.16;5036647;28;20159;-81
2022/01/30 12:41:27;;;;;;;19.05;3.90;;;;;;;7.93;58.67;103173.00;5036196;28;20049;-71
2022/01/30 12:44:03;;;;;;;17.05;4.00;;;;;;;7.81;60.56;103158.63;5035555;28;20049;-71
2022/01/30 12:46:37;;;;;;;20.77;3.90;;;;;;;7.40;61.13;103157.91;5035098;28;20048;-71
2022/01/30 12:49:20;;;;;;;17.77;3.05;;;;;;;7.27;62.12;103151.47;5033777;28;20080;-71
2022/01/30 12:52:21;;;;;;;17.40;3.40;;;;;;;7.45;62.36;103143.84;5034609;28;20128;-71
2022/01/30 12:54:50;;;;;;;28.67;4.93;;;;;;;7.59;62.17;103145.84;5034904;28;20049;-71
2022/01/30 12:57:24;;;;;;;22.02;3.60;;;;;;;7.77;62.38;103134.66;5050023;28;20088;-71
2022/01/30 12:59:56;;;;;;;23.95;3.80;;;;;;;7.66;62.30;103127.41;5035985;28;20494;-80
2022/01/30 13:02:25;;;;;;;18.30;3.90;;;;;;;7.62;61.68;103135.28;5036091;28;20057;-80
2022/01/30 13:05:01;;;;;;;18.20;3.83;;;;;;;7.62;62.71;103124.66;5037222;28;20053;-81
2022/01/30 13:07:29;;;;;;;23.70;3.97;;;;;;;8.19;62.07;103106.94;5036912;28;20050;-80
2022/01/30 13:10:23;;;;;;;20.17;3.97;;;;;;;8.40;61.15;103114.28;5037404;28;20081;-80
2022/01/30 13:12:51;;;;;;;20.33;4.30;;;;;;;8.29;61.67;103098.19;5035455;28;20057;-71
2022/01/30 13:15:27;;;;;;;18.63;4.00;;;;;;;8.10;61.68;103098.78;5033395;28;20059;-71